sensor_id;sensor_type;location;lat;lon;timestamp;P1;durP1;ratioP1;P2;durP2;ratioP2
64085;SDS011;50333;47.436;21.390;2022-08-19T00:01:57;5.45;;;4.87;;
64085;SDS011;50333;47.436;21.390;2022-08-19T00:04:28;5.75;;;4.75;;
64085;SDS011;50333;47.436;21.390;2022-08-19T00:06:58;8.25;;;5.12;;
64085;SDS011;50333;47.436;21.390;2022-08-19T00:09:27;7.93;;;5.00;;
64085;SDS011;50333;47.436;21.390;2022-08-19T00:11:55;5.25;;;4.75;;
64085;SDS011;50333;47.436;21.390;2022-08-19T00:14:25;8.68;;;4.62;;
64085;SDS011;50333;47.436;21.390;2022-08-19T00:16:54;6.40;;;4.80;;
64085;SDS011;50333;47.436;21.390;2022-08-19T00:19:22;5.93;;;4.87;;
64085;SDS011;50333;47.436;21.390;2022-08-19T00:21:50;5.72;;;5.12;;
64085;SDS011;50333;47.436;21.390;2022-08-19T00:24:19;8.25;;;4.70;;
64085;SDS011;50333;47.436;21.390;2022-08-19T00:26:47;5.12;;;4.60;;
64085;SDS011;50333;47.436;21.390;2022-08-19T00:29:16;5.80;;;4.72;;
64085;SDS011;50333;47.436;21.390;2022-08-19T00:31:46;6.55;;;5.15;;
64085;SDS011;50333;47.436;21.390;2022-08-19T00:36:44;6.03;;;4.60;;
64085;SDS011;50333;47.436;21.390;2022-08-19T00:39:14;5.57;;;5.07;;
64085;SDS011;50333;47.436;21.390;2022-08-19T00:41:44;9.05;;;5.25;;
64085;SDS011;50333;47.436;21.390;2022-08-19T00:44:17;6.28;;;4.97;;
64085;SDS011;50333;47.436;21.390;2022-08-19T00:46:54;6.43;;;4.72;;
64085;SDS011;50333;47.436;21.390;2022-08-19T00:52:11;6.85;;;5.10;;
64085;SDS011;50333;47.436;21.390;2022-08-19T00:54:42;5.32;;;4.75;;
64085;SDS011;50333;47.436;21.390;2022-08-19T00:57:16;5.90;;;5.25;;
64085;SDS011;50333;47.436;21.390;2022-08-19T00:59:48;9.60;;;5.30;;
64085;SDS011;50333;47.436;21.390;2022-08-19T01:02:30;8.23;;;5.35;;
64085;SDS011;50333;47.436;21.390;2022-08-19T01:05:04;8.77;;;4.65;;
64085;SDS011;50333;47.436;21.390;2022-08-19T01:07:35;6.32;;;5.32;;
64085;SDS011;50333;47.436;21.390;2022-08-19T01:10:08;6.93;;;5.05;;
64085;SDS011;50333;47.436;21.390;2022-08-19T01:12:39;8.57;;;5.15;;
64085;SDS011;50333;47.436;21.390;2022-08-19T01:15:09;5.62;;;5.10;;
64085;SDS011;50333;47.436;21.390;2022-08-19T01:17:38;7.47;;;4.80;;
64085;SDS011;50333;47.436;21.390;2022-08-19T01:22:40;6.53;;;5.15;;
64085;SDS011;50333;47.436;21.390;2022-08-19T01:25:16;7.80;;;5.22;;
64085;SDS011;50333;47.436;21.390;2022-08-19T01:27:46;7.35;;;5.37;;
64085;SDS011;50333;47.436;21.390;2022-08-19T01:30:21;6.53;;;5.07;;
64085;SDS011;50333;47.436;21.390;2022-08-19T01:32:53;8.57;;;5.28;;
64085;SDS011;50333;47.436;21.390;2022-08-19T01:35:25;6.53;;;5.50;;
64085;SDS011;50333;47.436;21.390;2022-08-19T01:37:55;5.43;;;4.80;;
64085;SDS011;50333;47.436;21.390;2022-08-19T01:40:27;9.05;;;5.35;;
64085;SDS011;50333;47.436;21.390;2022-08-19T01:42:58;5.95;;;4.90;;
64085;SDS011;50333;47.436;21.390;2022-08-19T01:45:28;6.87;;;4.90;;
64085;SDS011;50333;47.436;21.390;2022-08-19T01:47:58;5.20;;;4.70;;
64085;SDS011;50333;47.436;21.390;2022-08-19T01:50:30;7.82;;;5.62;;
64085;SDS011;50333;47.436;21.390;2022-08-19T01:52:59;9.85;;;5.72;;
64085;SDS011;50333;47.436;21.390;2022-08-19T01:55:35;6.75;;;4.85;;
64085;SDS011;50333;47.436;21.390;2022-08-19T01:58:10;5.87;;;5.10;;
64085;SDS011;50333;47.436;21.390;2022-08-19T02:00:46;6.60;;;5.32;;
64085;SDS011;50333;47.436;21.390;2022-08-19T02:03:15;6.35;;;4.87;;
64085;SDS011;50333;47.436;21.390;2022-08-19T02:05:44;5.62;;;4.78;;
64085;SDS011;50333;47.436;21.390;2022-08-19T02:08:12;5.53;;;4.70;;
64085;SDS011;50333;47.436;21.390;2022-08-19T02:10:41;9.23;;;5.15;;
64085;SDS011;50333;47.436;21.390;2022-08-19T02:13:11;6.72;;;5.12;;
64085;SDS011;50333;47.436;21.390;2022-08-19T02:15:39;8.75;;;4.82;;
64085;SDS011;50333;47.436;21.390;2022-08-19T02:18:07;5.55;;;4.95;;
64085;SDS011;50333;47.436;21.390;2022-08-19T02:20:36;5.87;;;4.93;;
64085;SDS011;50333;47.436;21.390;2022-08-19T02:23:05;9.43;;;5.15;;
64085;SDS011;50333;47.436;21.390;2022-08-19T02:25:43;6.53;;;4.75;;
64085;SDS011;50333;47.436;21.390;2022-08-19T02:28:12;5.50;;;5.00;;
64085;SDS011;50333;47.436;21.390;2022-08-19T02:30:45;5.45;;;4.93;;
64085;SDS011;50333;47.436;21.390;2022-08-19T02:33:14;6.00;;;4.40;;
64085;SDS011;50333;47.436;21.390;2022-08-19T02:35:43;9.63;;;4.90;;
64085;SDS011;50333;47.436;21.390;2022-08-19T02:38:13;5.75;;;5.12;;
64085;SDS011;50333;47.436;21.390;2022-08-19T02:40:59;6.10;;;5.15;;
64085;SDS011;50333;47.436;21.390;2022-08-19T02:43:30;5.97;;;5.20;;
64085;SDS011;50333;47.436;21.390;2022-08-19T02:46:01;5.72;;;5.03;;
64085;SDS011;50333;47.436;21.390;2022-08-19T02:48:30;5.93;;;5.10;;
64085;SDS011;50333;47.436;21.390;2022-08-19T02:51:00;6.78;;;5.18;;
64085;SDS011;50333;47.436;21.390;2022-08-19T02:53:28;10.02;;;5.70;;
64085;SDS011;50333;47.436;21.390;2022-08-19T02:55:56;7.65;;;5.32;;
64085;SDS011;50333;47.436;21.390;2022-08-19T02:58:24;9.13;;;5.18;;
64085;SDS011;50333;47.436;21.390;2022-08-19T03:00:54;10.20;;;5.78;;
64085;SDS011;50333;47.436;21.390;2022-08-19T03:03:23;7.62;;;5.32;;
64085;SDS011;50333;47.436;21.390;2022-08-19T03:06:01;7.07;;;5.45;;
64085;SDS011;50333;47.436;21.390;2022-08-19T03:08:41;6.18;;;5.57;;
64085;SDS011;50333;47.436;21.390;2022-08-19T03:11:16;7.18;;;5.75;;
64085;SDS011;50333;47.436;21.390;2022-08-19T03:13:50;6.53;;;5.50;;
64085;SDS011;50333;47.436;21.390;2022-08-19T03:16:21;9.88;;;5.57;;
64085;SDS011;50333;47.436;21.390;2022-08-19T03:18:51;6.85;;;5.60;;
64085;SDS011;50333;47.436;21.390;2022-08-19T03:21:21;6.12;;;5.35;;
64085;SDS011;50333;47.436;21.390;2022-08-19T03:23:56;5.82;;;5.22;;
64085;SDS011;50333;47.436;21.390;2022-08-19T03:26:25;6.97;;;5.25;;
64085;SDS011;50333;47.436;21.390;2022-08-19T03:28:53;6.55;;;5.25;;
64085;SDS011;50333;47.436;21.390;2022-08-19T03:31:26;8.50;;;5.18;;
64085;SDS011;50333;47.436;21.390;2022-08-19T03:34:15;7.87;;;5.90;;
64085;SDS011;50333;47.436;21.390;2022-08-19T03:36:46;6.70;;;5.60;;
64085;SDS011;50333;47.436;21.390;2022-08-19T03:39:15;6.18;;;5.35;;
64085;SDS011;50333;47.436;21.390;2022-08-19T03:41:44;9.48;;;5.55;;
64085;SDS011;50333;47.436;21.390;2022-08-19T03:44:19;7.87;;;5.78;;
64085;SDS011;50333;47.436;21.390;2022-08-19T03:46:50;7.60;;;5.55;;
64085;SDS011;50333;47.436;21.390;2022-08-19T03:49:22;8.23;;;5.80;;
64085;SDS011;50333;47.436;21.390;2022-08-19T03:51:54;7.03;;;5.37;;
64085;SDS011;50333;47.436;21.390;2022-08-19T03:54:25;7.00;;;5.28;;
64085;SDS011;50333;47.436;21.390;2022-08-19T03:56:53;6.28;;;5.18;;
64085;SDS011;50333;47.436;21.390;2022-08-19T03:59:28;7.75;;;5.07;;
64085;SDS011;50333;47.436;21.390;2022-08-19T04:02:00;7.72;;;5.32;;
64085;SDS011;50333;47.436;21.390;2022-08-19T04:04:30;5.72;;;5.12;;
64085;SDS011;50333;47.436;21.390;2022-08-19T04:06:58;8.60;;;5.50;;
64085;SDS011;50333;47.436;21.390;2022-08-19T04:09:26;5.60;;;5.10;;
64085;SDS011;50333;47.436;21.390;2022-08-19T04:11:54;10.32;;;5.53;;
64085;SDS011;50333;47.436;21.390;2022-08-19T04:14:25;5.95;;;5.35;;
64085;SDS011;50333;47.436;21.390;2022-08-19T04:16:56;7.85;;;5.50;;
64085;SDS011;50333;47.436;21.390;2022-08-19T04:19:25;11.30;;;5.93;;
64085;SDS011;50333;47.436;21.390;2022-08-19T04:21:54;7.62;;;4.95;;
64085;SDS011;50333;47.436;21.390;2022-08-19T04:24:22;10.82;;;5.75;;
64085;SDS011;50333;47.436;21.390;2022-08-19T04:26:50;7.03;;;5.03;;
64085;SDS011;50333;47.436;21.390;2022-08-19T04:29:19;8.07;;;5.12;;
64085;SDS011;50333;47.436;21.390;2022-08-19T04:31:53;5.37;;;4.87;;
64085;SDS011;50333;47.436;21.390;2022-08-19T04:34:23;6.12;;;5.30;;
64085;SDS011;50333;47.436;21.390;2022-08-19T04:36:55;10.75;;;5.30;;
64085;SDS011;50333;47.436;21.390;2022-08-19T04:39:28;10.20;;;5.97;;
64085;SDS011;50333;47.436;21.390;2022-08-19T04:42:17;7.90;;;5.12;;
64085;SDS011;50333;47.436;21.390;2022-08-19T04:45:04;5.68;;;5.10;;
64085;SDS011;50333;47.436;21.390;2022-08-19T04:47:41;9.45;;;5.00;;
64085;SDS011;50333;47.436;21.390;2022-08-19T04:50:25;7.50;;;5.32;;
64085;SDS011;50333;47.436;21.390;2022-08-19T04:52:54;7.60;;;5.05;;
64085;SDS011;50333;47.436;21.390;2022-08-19T04:55:22;6.22;;;4.90;;
64085;SDS011;50333;47.436;21.390;2022-08-19T04:57:55;8.85;;;5.25;;
64085;SDS011;50333;47.436;21.390;2022-08-19T05:00:23;6.70;;;5.50;;
64085;SDS011;50333;47.436;21.390;2022-08-19T05:02:51;7.12;;;5.15;;
64085;SDS011;50333;47.436;21.390;2022-08-19T05:05:19;7.40;;;5.20;;
64085;SDS011;50333;47.436;21.390;2022-08-19T05:07:48;5.78;;;5.07;;
64085;SDS011;50333;47.436;21.390;2022-08-19T05:10:16;9.43;;;5.47;;
64085;SDS011;50333;47.436;21.390;2022-08-19T05:12:44;7.10;;;5.75;;
64085;SDS011;50333;47.436;21.390;2022-08-19T05:15:12;8.32;;;5.10;;
64085;SDS011;50333;47.436;21.390;2022-08-19T05:17:40;7.12;;;4.85;;
64085;SDS011;50333;47.436;21.390;2022-08-19T05:20:28;12.30;;;5.32;;
64085;SDS011;50333;47.436;21.390;2022-08-19T05:23:14;9.23;;;5.37;;
64085;SDS011;50333;47.436;21.390;2022-08-19T05:25:49;8.43;;;5.22;;
64085;SDS011;50333;47.436;21.390;2022-08-19T05:28:18;6.32;;;5.18;;
64085;SDS011;50333;47.436;21.390;2022-08-19T05:30:47;6.60;;;5.30;;
64085;SDS011;50333;47.436;21.390;2022-08-19T05:33:18;9.07;;;4.72;;
64085;SDS011;50333;47.436;21.390;2022-08-19T05:35:46;8.20;;;5.37;;
64085;SDS011;50333;47.436;21.390;2022-08-19T05:38:16;8.43;;;5.15;;
64085;SDS011;50333;47.436;21.390;2022-08-19T05:40:45;7.60;;;5.43;;
64085;SDS011;50333;47.436;21.390;2022-08-19T05:43:14;6.40;;;4.65;;
64085;SDS011;50333;47.436;21.390;2022-08-19T05:45:45;5.62;;;4.60;;
64085;SDS011;50333;47.436;21.390;2022-08-19T05:48:13;5.78;;;4.70;;
64085;SDS011;50333;47.436;21.390;2022-08-19T05:50:41;6.93;;;4.78;;
64085;SDS011;50333;47.436;21.390;2022-08-19T05:53:10;10.27;;;4.53;;
64085;SDS011;50333;47.436;21.390;2022-08-19T05:55:37;6.47;;;4.90;;
64085;SDS011;50333;47.436;21.390;2022-08-19T05:58:06;13.65;;;5.03;;
64085;SDS011;50333;47.436;21.390;2022-08-19T06:00:37;5.25;;;4.75;;
64085;SDS011;50333;47.436;21.390;2022-08-19T06:03:05;10.15;;;4.90;;
64085;SDS011;50333;47.436;21.390;2022-08-19T06:05:39;9.73;;;5.10;;
64085;SDS011;50333;47.436;21.390;2022-08-19T06:08:18;9.30;;;4.60;;
64085;SDS011;50333;47.436;21.390;2022-08-19T06:13:43;8.68;;;4.40;;
64085;SDS011;50333;47.436;21.390;2022-08-19T06:16:18;8.70;;;4.97;;
64085;SDS011;50333;47.436;21.390;2022-08-19T06:18:50;5.53;;;4.53;;
64085;SDS011;50333;47.436;21.390;2022-08-19T06:21:22;7.75;;;4.87;;
64085;SDS011;50333;47.436;21.390;2022-08-19T06:23:52;11.43;;;5.15;;
64085;SDS011;50333;47.436;21.390;2022-08-19T06:26:22;10.90;;;4.60;;
64085;SDS011;50333;47.436;21.390;2022-08-19T06:31:21;7.85;;;5.07;;
64085;SDS011;50333;47.436;21.390;2022-08-19T06:33:51;9.43;;;4.60;;
64085;SDS011;50333;47.436;21.390;2022-08-19T06:36:21;9.98;;;5.03;;
64085;SDS011;50333;47.436;21.390;2022-08-19T06:38:52;5.72;;;4.55;;
64085;SDS011;50333;47.436;21.390;2022-08-19T06:41:20;10.52;;;4.68;;
64085;SDS011;50333;47.436;21.390;2022-08-19T06:43:48;5.68;;;4.40;;
64085;SDS011;50333;47.436;21.390;2022-08-19T06:46:20;12.77;;;4.87;;
64085;SDS011;50333;47.436;21.390;2022-08-19T06:48:49;7.53;;;5.22;;
64085;SDS011;50333;47.436;21.390;2022-08-19T06:51:17;7.80;;;4.60;;
64085;SDS011;50333;47.436;21.390;2022-08-19T06:53:50;7.00;;;4.95;;
64085;SDS011;50333;47.436;21.390;2022-08-19T06:56:24;6.97;;;4.90;;
64085;SDS011;50333;47.436;21.390;2022-08-19T06:59:00;5.62;;;4.72;;
64085;SDS011;50333;47.436;21.390;2022-08-19T07:01:29;6.07;;;4.43;;
64085;SDS011;50333;47.436;21.390;2022-08-19T07:03:56;8.15;;;4.85;;
64085;SDS011;50333;47.436;21.390;2022-08-19T07:06:25;5.00;;;4.47;;
64085;SDS011;50333;47.436;21.390;2022-08-19T07:09:14;6.00;;;4.80;;
64085;SDS011;50333;47.436;21.390;2022-08-19T07:11:46;7.32;;;4.57;;
64085;SDS011;50333;47.436;21.390;2022-08-19T07:14:17;5.35;;;4.45;;
64085;SDS011;50333;47.436;21.390;2022-08-19T07:16:48;6.10;;;4.37;;
64085;SDS011;50333;47.436;21.390;2022-08-19T07:19:17;6.05;;;4.55;;
64085;SDS011;50333;47.436;21.390;2022-08-19T07:21:47;10.07;;;4.62;;
64085;SDS011;50333;47.436;21.390;2022-08-19T07:24:19;10.68;;;4.68;;
64085;SDS011;50333;47.436;21.390;2022-08-19T07:26:48;7.18;;;4.47;;
64085;SDS011;50333;47.436;21.390;2022-08-19T07:29:18;11.07;;;4.37;;
64085;SDS011;50333;47.436;21.390;2022-08-19T07:31:50;8.13;;;4.35;;
64085;SDS011;50333;47.436;21.390;2022-08-19T07:34:20;5.25;;;4.50;;
64085;SDS011;50333;47.436;21.390;2022-08-19T07:36:48;7.62;;;4.47;;
64085;SDS011;50333;47.436;21.390;2022-08-19T07:39:20;8.13;;;4.30;;
64085;SDS011;50333;47.436;21.390;2022-08-19T07:41:58;6.65;;;4.35;;
64085;SDS011;50333;47.436;21.390;2022-08-19T07:44:28;10.02;;;4.53;;
64085;SDS011;50333;47.436;21.390;2022-08-19T07:46:56;12.20;;;4.65;;
64085;SDS011;50333;47.436;21.390;2022-08-19T07:49:24;7.65;;;4.35;;
64085;SDS011;50333;47.436;21.390;2022-08-19T07:51:54;9.30;;;4.18;;
64085;SDS011;50333;47.436;21.390;2022-08-19T07:54:25;11.50;;;4.12;;
64085;SDS011;50333;47.436;21.390;2022-08-19T07:56:55;7.80;;;4.25;;
64085;SDS011;50333;47.436;21.390;2022-08-19T07:59:23;8.70;;;4.22;;
64085;SDS011;50333;47.436;21.390;2022-08-19T08:01:51;5.70;;;4.03;;
64085;SDS011;50333;47.436;21.390;2022-08-19T08:04:20;7.47;;;4.35;;
64085;SDS011;50333;47.436;21.390;2022-08-19T08:07:07;4.93;;;3.65;;
64085;SDS011;50333;47.436;21.390;2022-08-19T08:09:58;9.07;;;3.55;;
64085;SDS011;50333;47.436;21.390;2022-08-19T08:12:32;10.55;;;3.65;;
64085;SDS011;50333;47.436;21.390;2022-08-19T08:15:04;6.12;;;3.65;;
64085;SDS011;50333;47.436;21.390;2022-08-19T08:17:39;6.43;;;3.72;;
64085;SDS011;50333;47.436;21.390;2022-08-19T08:20:18;5.50;;;3.60;;
64085;SDS011;50333;47.436;21.390;2022-08-19T08:22:47;6.73;;;3.57;;
64085;SDS011;50333;47.436;21.390;2022-08-19T08:25:34;6.05;;;3.47;;
64085;SDS011;50333;47.436;21.390;2022-08-19T08:28:03;6.97;;;3.17;;
64085;SDS011;50333;47.436;21.390;2022-08-19T08:30:31;10.52;;;3.60;;
64085;SDS011;50333;47.436;21.390;2022-08-19T08:33:02;5.00;;;3.47;;
64085;SDS011;50333;47.436;21.390;2022-08-19T08:35:30;5.57;;;2.95;;
64085;SDS011;50333;47.436;21.390;2022-08-19T08:37:58;6.57;;;3.20;;
64085;SDS011;50333;47.436;21.390;2022-08-19T08:46:00;3.20;;;2.90;;
64085;SDS011;50333;47.436;21.390;2022-08-19T08:51:25;7.62;;;2.78;;
64085;SDS011;50333;47.436;21.390;2022-08-19T08:54:02;4.32;;;2.90;;
64085;SDS011;50333;47.436;21.390;2022-08-19T08:56:39;3.95;;;2.62;;
64085;SDS011;50333;47.436;21.390;2022-08-19T08:59:19;3.20;;;2.90;;
64085;SDS011;50333;47.436;21.390;2022-08-19T09:01:51;6.28;;;2.35;;
64085;SDS011;50333;47.436;21.390;2022-08-19T09:04:19;3.95;;;2.60;;
64085;SDS011;50333;47.436;21.390;2022-08-19T09:06:51;3.15;;;2.80;;
64085;SDS011;50333;47.436;21.390;2022-08-19T09:10:08;3.42;;;2.40;;
64085;SDS011;50333;47.436;21.390;2022-08-19T09:15:30;4.53;;;3.15;;
64085;SDS011;50333;47.436;21.390;2022-08-19T09:18:04;7.68;;;2.95;;
64085;SDS011;50333;47.436;21.390;2022-08-19T09:20:33;6.82;;;2.75;;
64085;SDS011;50333;47.436;21.390;2022-08-19T09:23:01;3.65;;;2.70;;
64085;SDS011;50333;47.436;21.390;2022-08-19T09:25:31;2.72;;;2.53;;
64085;SDS011;50333;47.436;21.390;2022-08-19T09:28:02;3.20;;;2.90;;
64085;SDS011;50333;47.436;21.390;2022-08-19T09:30:39;4.62;;;2.58;;
64085;SDS011;50333;47.436;21.390;2022-08-19T09:33:08;3.05;;;2.75;;
64085;SDS011;50333;47.436;21.390;2022-08-19T09:35:36;4.30;;;2.70;;
64085;SDS011;50333;47.436;21.390;2022-08-19T09:38:20;3.53;;;2.72;;
64085;SDS011;50333;47.436;21.390;2022-08-19T09:40:48;5.55;;;2.90;;
64085;SDS011;50333;47.436;21.390;2022-08-19T09:43:17;5.28;;;2.65;;
64085;SDS011;50333;47.436;21.390;2022-08-19T09:46:00;3.33;;;2.60;;
64085;SDS011;50333;47.436;21.390;2022-08-19T09:48:29;3.23;;;2.60;;
64085;SDS011;50333;47.436;21.390;2022-08-19T09:51:07;4.60;;;2.70;;
64085;SDS011;50333;47.436;21.390;2022-08-19T09:53:43;3.40;;;2.60;;
64085;SDS011;50333;47.436;21.390;2022-08-19T09:58:40;3.05;;;2.60;;
64085;SDS011;50333;47.436;21.390;2022-08-19T10:01:08;2.90;;;2.70;;
64085;SDS011;50333;47.436;21.390;2022-08-19T10:03:37;7.15;;;2.70;;
64085;SDS011;50333;47.436;21.390;2022-08-19T10:06:05;3.17;;;2.85;;
64085;SDS011;50333;47.436;21.390;2022-08-19T10:08:44;5.83;;;2.97;;
64085;SDS011;50333;47.436;21.390;2022-08-19T10:11:18;8.27;;;2.90;;
64085;SDS011;50333;47.436;21.390;2022-08-19T10:14:05;6.62;;;3.12;;
64085;SDS011;50333;47.436;21.390;2022-08-19T10:16:40;4.60;;;2.70;;
64085;SDS011;50333;47.436;21.390;2022-08-19T10:19:19;3.97;;;2.55;;
64085;SDS011;50333;47.436;21.390;2022-08-19T10:21:54;3.72;;;2.10;;
64085;SDS011;50333;47.436;21.390;2022-08-19T10:24:30;4.95;;;2.40;;
64085;SDS011;50333;47.436;21.390;2022-08-19T10:27:03;7.03;;;2.80;;
64085;SDS011;50333;47.436;21.390;2022-08-19T10:29:39;4.28;;;2.30;;
64085;SDS011;50333;47.436;21.390;2022-08-19T10:32:15;7.37;;;2.65;;
64085;SDS011;50333;47.436;21.390;2022-08-19T10:34:43;3.83;;;2.40;;
64085;SDS011;50333;47.436;21.390;2022-08-19T10:37:15;4.93;;;2.35;;
64085;SDS011;50333;47.436;21.390;2022-08-19T10:39:58;5.18;;;2.85;;
64085;SDS011;50333;47.436;21.390;2022-08-19T10:42:26;2.37;;;2.12;;
64085;SDS011;50333;47.436;21.390;2022-08-19T10:44:53;7.97;;;2.50;;
64085;SDS011;50333;47.436;21.390;2022-08-19T10:47:22;5.10;;;2.85;;
64085;SDS011;50333;47.436;21.390;2022-08-19T10:49:52;3.10;;;2.62;;
64085;SDS011;50333;47.436;21.390;2022-08-19T10:52:42;4.32;;;2.42;;
64085;SDS011;50333;47.436;21.390;2022-08-19T10:55:15;2.72;;;2.53;;
64085;SDS011;50333;47.436;21.390;2022-08-19T10:58:09;4.97;;;2.60;;
64085;SDS011;50333;47.436;21.390;2022-08-19T11:03:18;5.15;;;2.50;;
64085;SDS011;50333;47.436;21.390;2022-08-19T11:05:46;3.90;;;2.50;;
64085;SDS011;50333;47.436;21.390;2022-08-19T11:08:16;4.22;;;2.60;;
64085;SDS011;50333;47.436;21.390;2022-08-19T11:10:52;3.22;;;2.60;;
64085;SDS011;50333;47.436;21.390;2022-08-19T11:13:44;3.03;;;2.65;;
64085;SDS011;50333;47.436;21.390;2022-08-19T11:16:14;3.65;;;2.67;;
64085;SDS011;50333;47.436;21.390;2022-08-19T11:18:54;7.87;;;3.28;;
64085;SDS011;50333;47.436;21.390;2022-08-19T11:21:30;8.63;;;3.10;;
64085;SDS011;50333;47.436;21.390;2022-08-19T11:24:00;6.50;;;2.60;;
64085;SDS011;50333;47.436;21.390;2022-08-19T11:26:30;8.82;;;3.12;;
64085;SDS011;50333;47.436;21.390;2022-08-19T11:28:59;3.62;;;2.80;;
64085;SDS011;50333;47.436;21.390;2022-08-19T11:31:30;5.05;;;2.70;;
64085;SDS011;50333;47.436;21.390;2022-08-19T11:34:01;3.45;;;2.60;;
64085;SDS011;50333;47.436;21.390;2022-08-19T11:36:31;7.55;;;2.72;;
64085;SDS011;50333;47.436;21.390;2022-08-19T11:39:02;3.53;;;2.60;;
64085;SDS011;50333;47.436;21.390;2022-08-19T11:41:31;6.85;;;2.67;;
64085;SDS011;50333;47.436;21.390;2022-08-19T11:43:59;3.25;;;2.72;;
64085;SDS011;50333;47.436;21.390;2022-08-19T11:46:27;4.22;;;2.72;;
64085;SDS011;50333;47.436;21.390;2022-08-19T11:48:57;6.60;;;2.83;;
64085;SDS011;50333;47.436;21.390;2022-08-19T11:51:26;3.47;;;2.72;;
64085;SDS011;50333;47.436;21.390;2022-08-19T11:53:56;7.40;;;2.90;;
64085;SDS011;50333;47.436;21.390;2022-08-19T11:56:25;3.15;;;2.67;;
64085;SDS011;50333;47.436;21.390;2022-08-19T11:58:54;4.75;;;2.87;;
64085;SDS011;50333;47.436;21.390;2022-08-19T12:01:25;4.05;;;3.00;;
64085;SDS011;50333;47.436;21.390;2022-08-19T12:03:54;4.22;;;3.35;;
64085;SDS011;50333;47.436;21.390;2022-08-19T12:06:25;2.95;;;2.53;;
64085;SDS011;50333;47.436;21.390;2022-08-19T12:08:57;8.15;;;3.25;;
64085;SDS011;50333;47.436;21.390;2022-08-19T12:11:27;5.55;;;3.30;;
64085;SDS011;50333;47.436;21.390;2022-08-19T12:14:01;5.05;;;2.87;;
64085;SDS011;50333;47.436;21.390;2022-08-19T12:16:29;5.37;;;3.45;;
64085;SDS011;50333;47.436;21.390;2022-08-19T12:18:59;8.13;;;2.87;;
64085;SDS011;50333;47.436;21.390;2022-08-19T12:21:33;4.12;;;3.05;;
64085;SDS011;50333;47.436;21.390;2022-08-19T12:24:02;4.25;;;3.10;;
64085;SDS011;50333;47.436;21.390;2022-08-19T12:26:35;3.83;;;2.87;;
64085;SDS011;50333;47.436;21.390;2022-08-19T12:29:20;5.00;;;2.70;;
64085;SDS011;50333;47.436;21.390;2022-08-19T12:31:50;4.37;;;3.30;;
64085;SDS011;50333;47.436;21.390;2022-08-19T12:34:18;6.10;;;2.97;;
64085;SDS011;50333;47.436;21.390;2022-08-19T12:36:47;3.15;;;2.80;;
64085;SDS011;50333;47.436;21.390;2022-08-19T12:39:17;4.50;;;3.10;;
64085;SDS011;50333;47.436;21.390;2022-08-19T12:41:45;3.55;;;3.08;;
64085;SDS011;50333;47.436;21.390;2022-08-19T12:44:22;6.10;;;3.03;;
64085;SDS011;50333;47.436;21.390;2022-08-19T12:46:56;9.15;;;3.15;;
64085;SDS011;50333;47.436;21.390;2022-08-19T12:49:24;5.40;;;2.87;;
64085;SDS011;50333;47.436;21.390;2022-08-19T12:52:14;4.75;;;2.60;;
64085;SDS011;50333;47.436;21.390;2022-08-19T12:54:50;7.90;;;3.08;;
64085;SDS011;50333;47.436;21.390;2022-08-19T12:57:22;4.12;;;2.80;;
64085;SDS011;50333;47.436;21.390;2022-08-19T13:00:11;3.78;;;3.10;;
64085;SDS011;50333;47.436;21.390;2022-08-19T13:02:42;7.80;;;3.22;;
64085;SDS011;50333;47.436;21.390;2022-08-19T13:05:15;4.60;;;2.90;;
64085;SDS011;50333;47.436;21.390;2022-08-19T13:07:47;7.07;;;3.12;;
64085;SDS011;50333;47.436;21.390;2022-08-19T13:10:17;4.03;;;3.00;;
64085;SDS011;50333;47.436;21.390;2022-08-19T13:12:47;3.40;;;3.10;;
64085;SDS011;50333;47.436;21.390;2022-08-19T13:15:17;5.53;;;2.97;;
64085;SDS011;50333;47.436;21.390;2022-08-19T13:17:51;4.85;;;3.20;;
64085;SDS011;50333;47.436;21.390;2022-08-19T13:20:21;6.95;;;3.22;;
64085;SDS011;50333;47.436;21.390;2022-08-19T13:22:49;10.87;;;3.10;;
64085;SDS011;50333;47.436;21.390;2022-08-19T13:25:17;8.13;;;3.00;;
64085;SDS011;50333;47.436;21.390;2022-08-19T13:27:47;3.50;;;2.80;;
64085;SDS011;50333;47.436;21.390;2022-08-19T13:33:04;3.40;;;2.92;;
64085;SDS011;50333;47.436;21.390;2022-08-19T13:35:39;6.15;;;2.90;;
64085;SDS011;50333;47.436;21.390;2022-08-19T13:38:08;7.40;;;3.08;;
64085;SDS011;50333;47.436;21.390;2022-08-19T13:40:38;4.18;;;2.87;;
64085;SDS011;50333;47.436;21.390;2022-08-19T13:43:08;6.30;;;2.95;;
64085;SDS011;50333;47.436;21.390;2022-08-19T13:45:52;4.68;;;3.20;;
64085;SDS011;50333;47.436;21.390;2022-08-19T13:48:23;4.72;;;2.95;;
64085;SDS011;50333;47.436;21.390;2022-08-19T13:50:54;8.10;;;3.00;;
64085;SDS011;50333;47.436;21.390;2022-08-19T13:53:21;4.57;;;2.80;;
64085;SDS011;50333;47.436;21.390;2022-08-19T13:55:50;3.42;;;3.03;;
64085;SDS011;50333;47.436;21.390;2022-08-19T13:58:18;7.00;;;3.20;;
64085;SDS011;50333;47.436;21.390;2022-08-19T14:00:46;9.45;;;3.20;;
64085;SDS011;50333;47.436;21.390;2022-08-19T14:05:43;6.75;;;2.97;;
64085;SDS011;50333;47.436;21.390;2022-08-19T14:08:11;3.40;;;3.10;;
64085;SDS011;50333;47.436;21.390;2022-08-19T14:10:42;6.25;;;3.40;;
64085;SDS011;50333;47.436;21.390;2022-08-19T14:13:17;7.12;;;3.58;;
64085;SDS011;50333;47.436;21.390;2022-08-19T14:15:47;8.52;;;3.30;;
64085;SDS011;50333;47.436;21.390;2022-08-19T14:18:17;3.47;;;2.80;;
64085;SDS011;50333;47.436;21.390;2022-08-19T14:20:46;7.32;;;3.55;;
64085;SDS011;50333;47.436;21.390;2022-08-19T14:23:14;4.97;;;3.10;;
64085;SDS011;50333;47.436;21.390;2022-08-19T14:25:42;3.22;;;2.70;;
64085;SDS011;50333;47.436;21.390;2022-08-19T14:28:11;3.90;;;3.10;;
64085;SDS011;50333;47.436;21.390;2022-08-19T14:30:39;8.77;;;3.00;;
64085;SDS011;50333;47.436;21.390;2022-08-19T14:33:07;3.20;;;2.87;;
64085;SDS011;50333;47.436;21.390;2022-08-19T14:35:35;4.65;;;3.03;;
64085;SDS011;50333;47.436;21.390;2022-08-19T14:38:05;8.32;;;3.20;;
64085;SDS011;50333;47.436;21.390;2022-08-19T14:40:41;11.38;;;3.17;;
64085;SDS011;50333;47.436;21.390;2022-08-19T14:43:09;6.10;;;2.95;;
64085;SDS011;50333;47.436;21.390;2022-08-19T14:45:38;8.05;;;3.10;;
64085;SDS011;50333;47.436;21.390;2022-08-19T14:48:07;4.43;;;3.00;;
64085;SDS011;50333;47.436;21.390;2022-08-19T14:50:46;10.43;;;2.87;;
64085;SDS011;50333;47.436;21.390;2022-08-19T14:53:15;4.40;;;3.12;;
64085;SDS011;50333;47.436;21.390;2022-08-19T14:55:44;6.47;;;3.25;;
64085;SDS011;50333;47.436;21.390;2022-08-19T15:00:58;3.67;;;2.97;;
64085;SDS011;50333;47.436;21.390;2022-08-19T15:03:27;4.07;;;3.20;;
64085;SDS011;50333;47.436;21.390;2022-08-19T15:05:55;6.57;;;3.25;;
64085;SDS011;50333;47.436;21.390;2022-08-19T15:08:25;4.55;;;3.15;;
64085;SDS011;50333;47.436;21.390;2022-08-19T15:10:54;8.80;;;3.30;;
64085;SDS011;50333;47.436;21.390;2022-08-19T15:13:24;5.20;;;3.10;;
64085;SDS011;50333;47.436;21.390;2022-08-19T15:15:53;4.80;;;3.08;;
64085;SDS011;50333;47.436;21.390;2022-08-19T15:18:23;10.32;;;3.47;;
64085;SDS011;50333;47.436;21.390;2022-08-19T15:20:51;7.03;;;3.20;;
64085;SDS011;50333;47.436;21.390;2022-08-19T15:23:19;7.15;;;2.95;;
64085;SDS011;50333;47.436;21.390;2022-08-19T15:25:48;6.35;;;3.15;;
64085;SDS011;50333;47.436;21.390;2022-08-19T15:28:21;3.85;;;2.95;;
64085;SDS011;50333;47.436;21.390;2022-08-19T15:30:50;5.10;;;3.10;;
64085;SDS011;50333;47.436;21.390;2022-08-19T15:33:18;3.42;;;2.87;;
64085;SDS011;50333;47.436;21.390;2022-08-19T15:35:47;5.50;;;2.95;;
64085;SDS011;50333;47.436;21.390;2022-08-19T15:38:21;6.55;;;3.00;;